createdAt,value
2023-05-05T00:01:08.956Z,95387.03
2023-05-05T00:03:35.832Z,95390.69
2023-05-05T00:06:03.133Z,95387.59
2023-05-05T00:08:29.778Z,95386.97
2023-05-05T00:10:57.409Z,95375.38
2023-05-05T00:13:24.556Z,95377.94
2023-05-05T00:15:53.313Z,95375.81
2023-05-05T00:18:20.521Z,95382.66
2023-05-05T00:20:47.988Z,95373.13
2023-05-05T00:23:18.949Z,95377.84
2023-05-05T00:25:45.675Z,95372.91
2023-05-05T00:28:13.982Z,95371.47
2023-05-05T00:30:40.592Z,95372.19
2023-05-05T00:33:07.204Z,95375.16
2023-05-05T00:35:34.240Z,95373.50
2023-05-05T00:38:00.825Z,95380.06
2023-05-05T00:40:28.368Z,95371.88
2023-05-05T00:42:54.908Z,95374.41
2023-05-05T00:45:21.444Z,95375.50
2023-05-05T00:47:51.301Z,95377.84
2023-05-05T00:50:27.248Z,95376.66
2023-05-05T00:52:56.615Z,95368.66
2023-05-05T00:55:23.200Z,95368.41
2023-05-05T00:57:49.881Z,95360.47
2023-05-05T01:00:16.728Z,95361.94
2023-05-05T01:02:44.538Z,95364.47
2023-05-05T01:05:13.230Z,95361.41
2023-05-05T01:08:13.868Z,95352.56
2023-05-05T01:10:55.006Z,95350.09
2023-05-05T01:13:49.876Z,95356.75
2023-05-05T01:16:23.816Z,95357.22
2023-05-05T01:19:28.110Z,95356.66
2023-05-05T01:22:00.379Z,95358.66
2023-05-05T01:24:56.931Z,95350.69
2023-05-05T01:27:48.283Z,95354.78
2023-05-05T01:30:17.665Z,95352.56
2023-05-05T01:32:50.879Z,95351.56
2023-05-05T01:35:41.586Z,95355.31
2023-05-05T01:38:19.233Z,95356.13
2023-05-05T01:40:49.883Z,95343.28
2023-05-05T01:43:20.053Z,95347.63
2023-05-05T01:45:47.842Z,95350.38
2023-05-05T01:48:18.265Z,95351.38
2023-05-05T01:50:47.300Z,95351.94
2023-05-05T01:53:17.423Z,95350.00
2023-05-05T01:55:45.960Z,95350.28
2023-05-05T01:58:13.687Z,95348.63
2023-05-05T02:00:41.816Z,95353.75
2023-05-05T02:03:11.006Z,95356.56
2023-05-05T02:05:39.571Z,95359.19
2023-05-05T02:08:08.755Z,95350.84
2023-05-05T02:10:37.964Z,95350.84
2023-05-05T02:13:05.210Z,95355.66
2023-05-05T02:15:33.892Z,95352.34
2023-05-05T02:18:02.028Z,95357.22
2023-05-05T02:20:31.107Z,95355.19
2023-05-05T02:22:59.116Z,95353.53
2023-05-05T02:25:44.090Z,95357.38
2023-05-05T02:28:21.699Z,95359.84
2023-05-05T02:30:58.126Z,95356.81
2023-05-05T02:33:28.174Z,95360.13
2023-05-05T02:35:56.802Z,95358.94
2023-05-05T02:38:28.794Z,95360.00
2023-05-05T02:41:01.565Z,95350.53
2023-05-05T02:43:31.361Z,95365.19
2023-05-05T02:45:57.971Z,95362.00
2023-05-05T02:48:24.705Z,95362.66
2023-05-05T02:50:52.422Z,95359.91
2023-05-05T02:53:30.980Z,95358.06
2023-05-05T02:56:14.174Z,95363.06
2023-05-05T02:58:53.660Z,95362.53
2023-05-05T03:01:29.313Z,95355.19
2023-05-05T03:04:08.280Z,95362.00
2023-05-05T03:06:47.064Z,95361.53
2023-05-05T03:09:20.696Z,95362.34
2023-05-05T03:11:58.531Z,95356.84
2023-05-05T03:14:29.547Z,95365.25
2023-05-05T03:16:59.599Z,95369.81
2023-05-05T03:19:27.647Z,95363.88
2023-05-05T03:21:59.160Z,95360.78
2023-05-05T03:24:25.727Z,95358.44
2023-05-05T03:26:59.898Z,95358.94
2023-05-05T03:29:32.562Z,95355.41
2023-05-05T03:32:00.897Z,95360.06
2023-05-05T03:34:28.068Z,95358.06
2023-05-05T03:36:54.655Z,95357.78
2023-05-05T03:39:21.629Z,95355.94
2023-05-05T03:41:49.331Z,95361.91
2023-05-05T03:44:18.374Z,95364.25
2023-05-05T03:46:44.952Z,95365.06
2023-05-05T03:49:13.941Z,95370.72
2023-05-05T03:51:42.312Z,95366.44
2023-05-05T03:54:08.874Z,95371.91
2023-05-05T03:56:36.307Z,95367.19
2023-05-05T03:59:03.005Z,95361.78
2023-05-05T04:01:30.006Z,95366.00
2023-05-05T04:03:57.589Z,95363.34
2023-05-05T04:06:24.288Z,95360.38
2023-05-05T04:08:50.832Z,95365.31
2023-05-05T04:11:17.528Z,95372.28
2023-05-05T04:13:44.114Z,95366.38
2023-05-05T04:16:10.800Z,95372.72
2023-05-05T04:18:38.265Z,95369.13
2023-05-05T04:21:04.960Z,95367.47
2023-05-05T04:23:31.593Z,95374.75
2023-05-05T04:25:58.572Z,95381.03
2023-05-05T04:28:26.430Z,95369.28
2023-05-05T04:30:53.436Z,95379.28
2023-05-05T04:33:20.242Z,95380.41
2023-05-05T04:35:48.890Z,95385.63
2023-05-05T04:38:15.532Z,95381.75
2023-05-05T04:40:42.165Z,95384.88
2023-05-05T04:43:10.213Z,95384.53
2023-05-05T04:45:36.937Z,95386.84
2023-05-05T04:48:05.091Z,95394.47
2023-05-05T04:50:32.419Z,95386.38
2023-05-05T04:52:59.014Z,95388.78
2023-05-05T04:55:25.977Z,95384.03
2023-05-05T04:57:52.508Z,95377.44
2023-05-05T05:00:19.087Z,95386.16
2023-05-05T05:02:45.785Z,95386.41
2023-05-05T05:05:12.547Z,95389.13
2023-05-05T05:07:39.165Z,95389.13
2023-05-05T05:10:06.241Z,95392.59
2023-05-05T05:12:32.977Z,95397.72
2023-05-05T05:14:59.853Z,95400.78
2023-05-05T05:17:26.902Z,95397.75
2023-05-05T05:19:55.190Z,95402.28
2023-05-05T05:22:22.109Z,95401.69
2023-05-05T05:24:48.768Z,95399.88
2023-05-05T05:27:15.748Z,95400.19
2023-05-05T05:29:45.179Z,95406.34
2023-05-05T05:32:11.879Z,95401.50
2023-05-05T05:34:38.672Z,95400.72
2023-05-05T05:37:06.926Z,95406.13
2023-05-05T05:39:33.509Z,95403.94
2023-05-05T05:42:00.539Z,95403.53
2023-05-05T05:44:27.302Z,95409.47
2023-05-05T05:46:53.831Z,95396.97
2023-05-05T05:49:20.634Z,95409.84
2023-05-05T05:51:47.171Z,95404.13
2023-05-05T05:54:13.706Z,95416.19
2023-05-05T05:56:41.598Z,95416.38
2023-05-05T05:59:09.968Z,95409.41
2023-05-05T06:01:38.105Z,95408.16
2023-05-05T06:04:04.885Z,95409.16
2023-05-05T06:06:31.556Z,95412.41
2023-05-05T06:08:58.237Z,95415.03
2023-05-05T06:11:24.852Z,95424.44
2023-05-05T06:13:51.425Z,95422.72
2023-05-05T06:16:18.051Z,95418.25
2023-05-05T06:18:45.912Z,95420.03
2023-05-05T06:21:13.261Z,95421.19
2023-05-05T06:23:40.459Z,95423.03
2023-05-05T06:26:07.259Z,95430.91
2023-05-05T06:28:33.805Z,95429.19
2023-05-05T06:31:00.524Z,95428.06
2023-05-05T06:33:27.123Z,95428.34
2023-05-05T06:35:54.252Z,95431.91
2023-05-05T06:38:20.803Z,95419.72
2023-05-05T06:40:49.441Z,95426.63
2023-05-05T06:43:16.892Z,95424.97
2023-05-05T06:45:48.053Z,95427.56
2023-05-05T06:48:14.651Z,95425.75
2023-05-05T06:50:41.186Z,95430.50
2023-05-05T06:53:07.984Z,95424.19
2023-05-05T06:55:34.490Z,95424.94
2023-05-05T06:58:01.223Z,95427.31
2023-05-05T07:00:27.919Z,95429.91
2023-05-05T07:02:54.662Z,95437.50
2023-05-05T07:05:21.237Z,95437.31
2023-05-05T07:07:52.659Z,95440.13
2023-05-05T07:10:19.289Z,95433.88
2023-05-05T07:12:46.524Z,95426.94
2023-05-05T07:15:26.834Z,95431.59
2023-05-05T07:17:55.664Z,95435.91
2023-05-05T07:20:22.227Z,95429.13
2023-05-05T07:22:48.747Z,95420.38
2023-05-05T07:25:15.333Z,95431.72
2023-05-05T07:27:41.931Z,95431.59
2023-05-05T07:30:13.209Z,95435.31
2023-05-05T07:32:42.081Z,95426.41
2023-05-05T07:35:09.013Z,95424.19
2023-05-05T07:37:35.919Z,95427.00
2023-05-05T07:40:02.516Z,95424.63
2023-05-05T07:42:29.054Z,95430.22
2023-05-05T07:44:55.577Z,95423.97
2023-05-05T07:47:22.195Z,95421.78
2023-05-05T07:49:48.728Z,95425.50
2023-05-05T07:52:15.267Z,95422.56
2023-05-05T07:54:42.364Z,95424.63
2023-05-05T07:57:08.913Z,95419.66
2023-05-05T07:59:35.910Z,95428.06
2023-05-05T08:02:02.477Z,95418.38
2023-05-05T08:04:29.059Z,95415.84
2023-05-05T08:06:55.738Z,95413.84
2023-05-05T08:09:22.281Z,95415.19
2023-05-05T08:11:48.815Z,95420.13
2023-05-05T08:14:15.572Z,95415.13
2023-05-05T08:16:42.096Z,95408.09
2023-05-05T08:19:21.115Z,95406.19
2023-05-05T08:21:51.815Z,95414.69
2023-05-05T08:24:18.422Z,95410.38
2023-05-05T08:26:44.988Z,95413.88
2023-05-05T08:29:11.543Z,95405.59
2023-05-05T08:31:38.180Z,95397.28
2023-05-05T08:34:05.595Z,95396.56
2023-05-05T08:36:32.928Z,95400.03
2023-05-05T08:39:00.101Z,95408.16
2023-05-05T08:41:27.738Z,95400.94
2023-05-05T08:43:54.550Z,95400.34
2023-05-05T08:46:22.008Z,95402.75
2023-05-05T08:48:48.761Z,95407.94
2023-05-05T08:51:19.383Z,95400.91
2023-05-05T08:53:58.374Z,95406.13
2023-05-05T08:56:34.132Z,95408.75
2023-05-05T08:59:02.090Z,95401.75
2023-05-05T09:01:29.924Z,95403.31
2023-05-05T09:03:58.478Z,95403.22
2023-05-05T09:06:27.261Z,95401.47
2023-05-05T09:08:54.328Z,95408.28
2023-05-05T09:11:22.495Z,95404.16
2023-05-05T09:13:49.663Z,95402.72
2023-05-05T09:16:16.354Z,95406.25
2023-05-05T09:18:43.106Z,95402.00
2023-05-05T09:21:24.582Z,95403.16
2023-05-05T09:24:08.194Z,95396.22
2023-05-05T09:26:42.651Z,95390.34
2023-05-05T09:29:09.902Z,95395.97
2023-05-05T09:31:37.715Z,95389.97
2023-05-05T09:34:15.463Z,95387.84
2023-05-05T09:36:48.812Z,95393.59
2023-05-05T09:39:19.968Z,95389.25
2023-05-05T09:41:46.920Z,95393.44
2023-05-05T09:44:17.177Z,95385.22
2023-05-05T09:46:52.127Z,95384.44
2023-05-05T09:49:23.508Z,95390.25
2023-05-05T09:51:50.078Z,95377.00
2023-05-05T09:54:23.531Z,95388.88
2023-05-05T09:56:50.833Z,95381.88
2023-05-05T09:59:17.361Z,95377.22
2023-05-05T10:01:44.254Z,95376.09
2023-05-05T10:04:31.344Z,95382.91
2023-05-05T10:06:58.837Z,95374.03
2023-05-05T10:09:26.197Z,95377.09
2023-05-05T10:11:53.330Z,95380.00
2023-05-05T10:14:20.620Z,95380.09
2023-05-05T10:16:52.059Z,95365.19
2023-05-05T10:19:20.470Z,95368.88
2023-05-05T10:21:51.557Z,95373.72
2023-05-05T10:24:42.715Z,95372.41
2023-05-05T10:27:16.592Z,95370.78
2023-05-05T10:30:07.305Z,95376.38
2023-05-05T10:32:54.355Z,95369.44
2023-05-05T10:35:27.229Z,95358.66
2023-05-05T10:37:54.902Z,95354.28
2023-05-05T10:40:25.670Z,95349.88
2023-05-05T10:42:54.150Z,95348.50
2023-05-05T10:45:20.863Z,95349.03
2023-05-05T10:47:48.318Z,95345.47
2023-05-05T10:50:24.533Z,95338.84
2023-05-05T10:53:18.988Z,95337.88
2023-05-05T10:56:04.514Z,95338.81
2023-05-05T10:58:59.013Z,95341.69
2023-05-05T11:01:34.840Z,95329.94
2023-05-05T11:04:21.798Z,95323.91
2023-05-05T11:07:14.387Z,95325.72
2023-05-05T11:09:59.370Z,95323.53
2023-05-05T11:12:25.966Z,95325.13
2023-05-05T11:15:23.679Z,95325.88
2023-05-05T11:17:50.592Z,95318.84
2023-05-05T11:20:17.298Z,95313.34
2023-05-05T11:23:04.296Z,95314.47
2023-05-05T11:25:34.315Z,95311.75
2023-05-05T11:28:05.376Z,95308.28
2023-05-05T11:30:32.070Z,95307.88
2023-05-05T11:33:24.625Z,95301.97
2023-05-05T11:36:06.745Z,95303.22
2023-05-05T11:39:00.206Z,95297.09
2023-05-05T11:41:32.798Z,95289.53
2023-05-05T11:44:12.133Z,95282.84
2023-05-05T11:47:04.322Z,95281.19
2023-05-05T11:49:34.556Z,95285.44
2023-05-05T11:52:05.423Z,95285.63
2023-05-05T11:54:33.123Z,95282.75
2023-05-05T11:57:10.141Z,95277.88
2023-05-05T12:00:02.671Z,95274.50
2023-05-05T12:02:31.491Z,95268.53
2023-05-05T12:04:59.483Z,95275.81
2023-05-05T12:07:28.142Z,95271.25
2023-05-05T12:09:55.227Z,95267.78
2023-05-05T12:12:33.046Z,95268.44
2023-05-05T12:14:59.598Z,95273.03
2023-05-05T12:17:36.728Z,95268.16
2023-05-05T12:20:03.745Z,95269.75
2023-05-05T12:22:30.456Z,95269.00
2023-05-05T12:24:59.729Z,95262.88
2023-05-05T12:27:27.771Z,95258.66
2023-05-05T12:29:55.481Z,95258.53
2023-05-05T12:32:28.100Z,95255.16
2023-05-05T12:34:57.555Z,95261.66
2023-05-05T12:37:26.171Z,95257.72
2023-05-05T12:39:54.998Z,95261.66
2023-05-05T12:42:23.059Z,95247.59
2023-05-05T12:44:49.681Z,95240.81
2023-05-05T12:47:30.311Z,95238.41
2023-05-05T12:49:57.635Z,95236.88
2023-05-05T12:52:24.225Z,95238.56
2023-05-05T12:54:55.118Z,95231.88
2023-05-05T12:57:22.371Z,95239.81
2023-05-05T12:59:49.692Z,95231.84
2023-05-05T13:02:17.054Z,95227.38
2023-05-05T13:04:54.055Z,95224.66
2023-05-05T13:07:21.937Z,95220.28
2023-05-05T13:09:50.866Z,95213.78
2023-05-05T13:12:18.549Z,95209.47
2023-05-05T13:14:46.677Z,95211.84
2023-05-05T13:17:14.148Z,95206.22
2023-05-05T13:19:46.122Z,95200.38
2023-05-05T13:22:13.377Z,95201.50
2023-05-05T13:24:50.786Z,95192.88
2023-05-05T13:27:18.563Z,95187.47
2023-05-05T13:29:45.906Z,95190.41
2023-05-05T13:32:12.606Z,95179.72
2023-05-05T13:34:39.521Z,95188.53
2023-05-05T13:37:06.491Z,95173.75
2023-05-05T13:39:33.209Z,95171.84
2023-05-05T13:41:59.777Z,95170.97
2023-05-05T13:44:26.355Z,95165.75
2023-05-05T13:46:57.449Z,95153.56
2023-05-05T13:49:25.793Z,95148.41
2023-05-05T13:51:52.668Z,95144.72
2023-05-05T13:54:19.528Z,95148.88
2023-05-05T13:56:46.215Z,95144.59
2023-05-05T13:59:12.849Z,95145.00
2023-05-05T14:01:39.571Z,95135.06
2023-05-05T14:04:06.366Z,95138.00
2023-05-05T14:06:33.590Z,95140.88
2023-05-05T14:09:00.540Z,95137.09
2023-05-05T14:11:27.393Z,95138.84
2023-05-05T14:13:54.084Z,95132.00
2023-05-05T14:16:20.640Z,95129.53
2023-05-05T14:18:47.251Z,95124.31
2023-05-05T14:21:13.776Z,95119.69
2023-05-05T14:23:40.350Z,95120.50
2023-05-05T14:26:08.693Z,95119.69
2023-05-05T14:28:35.345Z,95114.69
2023-05-05T14:31:01.889Z,95115.16
2023-05-05T14:33:28.455Z,95114.88
2023-05-05T14:35:55.442Z,95114.56
2023-05-05T14:38:22.037Z,95113.22
2023-05-05T14:40:48.714Z,95117.59
2023-05-05T14:43:15.252Z,95111.88
2023-05-05T14:45:42.057Z,95116.47
2023-05-05T14:48:08.744Z,95116.53
2023-05-05T14:50:35.354Z,95115.69
2023-05-05T14:53:01.899Z,95111.13
2023-05-05T14:55:28.586Z,95112.19
2023-05-05T14:57:55.166Z,95106.47
2023-05-05T15:00:21.737Z,95105.88
2023-05-05T15:02:48.553Z,95100.22
2023-05-05T15:05:15.537Z,95102.72
2023-05-05T15:07:42.516Z,95099.25
2023-05-05T15:10:09.618Z,95093.47
2023-05-05T15:12:36.247Z,95099.06
2023-05-05T15:15:02.928Z,95099.16
2023-05-05T15:17:30.760Z,95110.28
2023-05-05T15:19:57.488Z,95103.53
2023-05-05T15:22:24.098Z,95102.94
2023-05-05T15:24:50.825Z,95104.81
2023-05-05T15:27:18.170Z,95105.91
2023-05-05T15:29:45.013Z,95105.47
2023-05-05T15:32:11.596Z,95097.34
2023-05-05T15:34:38.208Z,95092.47
2023-05-05T15:37:04.825Z,95085.69
2023-05-05T15:39:31.511Z,95082.13
2023-05-05T15:42:02.667Z,95079.72
2023-05-05T15:44:29.865Z,95082.56
2023-05-05T15:46:56.442Z,95076.41
2023-05-05T15:49:23.042Z,95076.81
2023-05-05T15:51:49.668Z,95071.22
2023-05-05T15:54:16.277Z,95081.66
2023-05-05T15:56:42.819Z,95082.09
2023-05-05T15:59:09.326Z,95084.97
2023-05-05T16:01:36.403Z,95082.31
2023-05-05T16:04:03.556Z,95081.78
2023-05-05T16:06:30.426Z,95082.63
2023-05-05T16:08:58.506Z,95085.56
2023-05-05T16:11:26.151Z,95074.56
2023-05-05T16:13:53.081Z,95082.63
2023-05-05T16:16:19.702Z,95071.56
2023-05-05T16:18:46.318Z,95073.19
2023-05-05T16:21:13.083Z,95066.16
2023-05-05T16:23:39.811Z,95059.72
2023-05-05T16:26:06.432Z,95059.16
2023-05-05T16:28:34.220Z,95057.22
2023-05-05T16:31:01.786Z,95058.31
2023-05-05T16:33:28.507Z,95057.81
2023-05-05T16:35:55.464Z,95050.28
2023-05-05T16:38:22.019Z,95055.13
2023-05-05T16:40:48.583Z,95058.34
2023-05-05T16:43:15.309Z,95066.44
2023-05-05T16:45:41.928Z,95056.19
2023-05-05T16:48:09.235Z,95056.19
2023-05-05T16:50:36.167Z,95062.41
2023-05-05T16:53:02.738Z,95067.50
2023-05-05T16:55:29.607Z,95069.09
2023-05-05T16:57:56.200Z,95076.94
2023-05-05T17:00:22.726Z,95068.56
2023-05-05T17:02:49.325Z,95062.34
2023-05-05T17:05:17.320Z,95058.25
2023-05-05T17:07:43.890Z,95052.38
2023-05-05T17:10:10.810Z,95046.13
2023-05-05T17:12:37.445Z,95047.72
2023-05-05T17:15:04.351Z,95039.44
2023-05-05T17:17:30.905Z,95035.06
2023-05-05T17:19:57.421Z,95030.47
2023-05-05T17:22:24.044Z,95032.59
2023-05-05T17:24:50.863Z,95033.69
2023-05-05T17:27:17.464Z,95032.59
2023-05-05T17:29:44.165Z,95032.56
2023-05-05T17:32:10.935Z,95021.50
2023-05-05T17:34:37.753Z,95026.06
2023-05-05T17:37:04.661Z,95025.09
2023-05-05T17:39:31.210Z,95025.34
2023-05-05T17:41:57.810Z,95023.19
2023-05-05T17:44:24.404Z,95015.13
2023-05-05T17:46:51.182Z,95011.34
2023-05-05T17:49:17.799Z,95006.19
2023-05-05T17:51:44.384Z,94993.28
2023-05-05T17:54:11.025Z,94991.63
2023-05-05T17:56:37.983Z,94986.25
2023-05-05T17:59:04.763Z,94980.56
2023-05-05T18:01:31.332Z,94972.41
2023-05-05T18:03:57.921Z,94965.94
2023-05-05T18:06:24.919Z,94969.94
2023-05-05T18:08:51.609Z,94974.47
2023-05-05T18:11:19.249Z,94992.16
2023-05-05T18:13:45.924Z,95017.09
2023-05-05T18:16:12.652Z,95026.94
2023-05-05T18:18:41.122Z,95022.84
2023-05-05T18:21:12.123Z,95028.31
2023-05-05T18:23:40.315Z,95013.56
2023-05-05T18:26:07.217Z,95006.28
2023-05-05T18:28:33.756Z,95034.34
2023-05-05T18:31:00.334Z,95049.69
2023-05-05T18:33:26.898Z,95063.38
2023-05-05T18:35:53.505Z,95078.16
2023-05-05T18:38:20.100Z,95081.03
2023-05-05T18:40:46.788Z,95071.16
2023-05-05T18:43:13.392Z,95080.28
2023-05-05T18:45:40.120Z,95110.31
2023-05-05T18:48:06.886Z,95190.81
2023-05-05T18:50:33.475Z,95347.22
2023-05-05T18:52:59.995Z,95399.94
2023-05-05T18:55:26.540Z,95420.09
2023-05-05T18:57:53.264Z,95459.84
2023-05-05T19:00:20.657Z,95361.63
2023-05-05T19:02:47.243Z,95347.97
2023-05-05T19:05:13.839Z,95326.84
2023-05-05T19:07:40.769Z,95326.09
2023-05-05T19:10:08.289Z,95328.78
2023-05-05T19:12:35.090Z,95334.81
2023-05-05T19:15:01.712Z,95357.84
2023-05-05T19:17:28.321Z,95382.28
2023-05-05T19:19:54.885Z,95408.50
2023-05-05T19:22:23.374Z,95409.81
2023-05-05T19:24:49.886Z,95417.00
2023-05-05T19:27:17.084Z,95427.22
2023-05-05T19:29:43.869Z,95407.41
2023-05-05T19:32:10.765Z,95395.69
2023-05-05T19:34:37.404Z,95385.25
2023-05-05T19:37:03.949Z,95382.44
2023-05-05T19:39:30.510Z,95387.75
2023-05-05T19:41:57.095Z,95385.84
2023-05-05T19:44:23.745Z,95408.09
2023-05-05T19:46:50.399Z,95418.47
2023-05-05T19:49:16.923Z,95407.41
2023-05-05T19:51:43.793Z,95410.13
2023-05-05T19:54:10.462Z,95403.56
2023-05-05T19:56:37.057Z,95402.88
2023-05-05T19:59:06.067Z,95392.16
2023-05-05T20:01:35.530Z,95392.03
2023-05-05T20:04:03.550Z,95394.63
2023-05-05T20:06:30.185Z,95387.13
2023-05-05T20:08:56.717Z,95388.78
2023-05-05T20:11:24.600Z,95387.16
2023-05-05T20:13:51.710Z,95390.66
2023-05-05T20:16:18.618Z,95390.97
2023-05-05T20:18:45.216Z,95391.75
2023-05-05T20:21:11.754Z,95391.59
2023-05-05T20:23:38.366Z,95388.97
2023-05-05T20:26:04.983Z,95379.19
2023-05-05T20:28:31.706Z,95386.06
2023-05-05T20:30:58.424Z,95383.28
2023-05-05T20:33:24.957Z,95377.75
2023-05-05T20:35:51.500Z,95393.00
2023-05-05T20:38:18.105Z,95393.03
2023-05-05T20:40:44.725Z,95394.72
2023-05-05T20:43:11.240Z,95392.59
2023-05-05T20:45:37.835Z,95387.97
2023-05-05T20:48:07.204Z,95389.41
2023-05-05T20:50:36.514Z,95387.19
2023-05-05T20:53:03.046Z,95384.94
2023-05-05T20:55:29.617Z,95389.03
2023-05-05T20:57:56.207Z,95377.66
2023-05-05T21:00:23.037Z,95379.25
2023-05-05T21:02:49.626Z,95372.72
2023-05-05T21:05:16.273Z,95368.72
2023-05-05T21:07:42.858Z,95362.84
2023-05-05T21:10:10.086Z,95361.16
2023-05-05T21:12:36.987Z,95364.41
2023-05-05T21:15:03.767Z,95363.78
2023-05-05T21:17:30.335Z,95364.63
2023-05-05T21:19:57.364Z,95370.00
2023-05-05T21:22:23.882Z,95368.56
2023-05-05T21:24:50.964Z,95372.97
2023-05-05T21:27:17.688Z,95367.59
2023-05-05T21:29:44.228Z,95368.88
2023-05-05T21:32:11.454Z,95367.53
2023-05-05T21:34:38.728Z,95365.94
2023-05-05T21:37:06.280Z,95367.34
2023-05-05T21:39:33.238Z,95369.91
2023-05-05T21:42:00.734Z,95367.28
2023-05-05T21:44:28.136Z,95371.75
2023-05-05T21:46:55.216Z,95358.97
2023-05-05T21:49:21.816Z,95359.94
2023-05-05T21:51:48.370Z,95355.31
2023-05-05T21:54:14.895Z,95359.41
2023-05-05T21:56:41.706Z,95362.09
2023-05-05T21:59:08.313Z,95365.56
2023-05-05T22:01:35.175Z,95357.22
2023-05-05T22:04:01.888Z,95349.06
2023-05-05T22:06:28.459Z,95356.41
2023-05-05T22:08:56.581Z,95355.41
2023-05-05T22:11:23.478Z,95350.91
2023-05-05T22:13:50.336Z,95346.44
2023-05-05T22:16:19.744Z,95354.00
2023-05-05T22:18:46.754Z,95350.88
2023-05-05T22:21:13.474Z,95355.19
2023-05-05T22:23:41.772Z,95356.41
2023-05-05T22:26:08.998Z,95355.22
2023-05-05T22:28:36.064Z,95361.50
2023-05-05T22:31:02.650Z,95352.34
2023-05-05T22:33:29.277Z,95349.09
2023-05-05T22:35:56.043Z,95357.25
2023-05-05T22:38:22.650Z,95351.31
2023-05-05T22:40:49.200Z,95351.34
2023-05-05T22:43:15.726Z,95348.88
2023-05-05T22:45:43.184Z,95348.88
2023-05-05T22:48:09.786Z,95351.13
2023-05-05T22:50:36.697Z,95339.69
2023-05-05T22:53:03.570Z,95348.88
2023-05-05T22:55:30.210Z,95349.25
2023-05-05T22:57:56.717Z,95344.81
2023-05-05T23:00:24.123Z,95353.53
2023-05-05T23:02:50.784Z,95342.13
2023-05-05T23:05:17.497Z,95340.69
2023-05-05T23:07:44.134Z,95342.88
2023-05-05T23:10:10.805Z,95338.19
2023-05-05T23:12:37.537Z,95334.13
2023-05-05T23:15:05.465Z,95335.25
2023-05-05T23:17:32.144Z,95332.06
2023-05-05T23:19:58.795Z,95334.31
2023-05-05T23:22:25.360Z,95334.50
2023-05-05T23:24:51.855Z,95321.88
2023-05-05T23:27:18.379Z,95324.75
2023-05-05T23:29:44.891Z,95325.53
2023-05-05T23:32:11.404Z,95329.06
2023-05-05T23:34:37.967Z,95326.19
2023-05-05T23:37:06.214Z,95321.25
2023-05-05T23:39:34.413Z,95326.38
2023-05-05T23:42:00.976Z,95324.09
2023-05-05T23:44:27.665Z,95316.56
2023-05-05T23:46:54.446Z,95326.38
2023-05-05T23:49:21.189Z,95324.75
2023-05-05T23:51:47.725Z,95320.41
2023-05-05T23:54:14.231Z,95316.97
2023-05-05T23:56:41.054Z,95316.16
2023-05-05T23:59:07.611Z,95322.72
